createdAt,value
2022-10-04T00:01:04.066Z,100.00
2022-10-04T00:03:35.880Z,100.00
2022-10-04T00:06:04.633Z,100.00
2022-10-04T00:08:41.736Z,100.00
2022-10-04T00:11:17.130Z,100.00
2022-10-04T00:13:50.394Z,100.00
2022-10-04T00:16:30.507Z,100.00
2022-10-04T00:19:22.615Z,100.00
2022-10-04T00:22:29.302Z,100.00
2022-10-04T00:25:19.020Z,100.00
2022-10-04T00:28:29.198Z,100.00
2022-10-04T00:31:19.910Z,100.00
2022-10-04T00:33:51.355Z,100.00
2022-10-04T00:36:52.137Z,100.00
2022-10-04T00:39:38.622Z,100.00
2022-10-04T00:42:18.858Z,100.00
2022-10-04T00:44:50.549Z,100.00
2022-10-04T00:47:27.127Z,100.00
2022-10-04T00:50:02.505Z,100.00
2022-10-04T00:52:34.308Z,100.00
2022-10-04T00:55:08.195Z,100.00
2022-10-04T00:57:41.396Z,100.00
2022-10-04T01:00:15.028Z,100.00
2022-10-04T01:02:53.805Z,100.00
2022-10-04T01:05:27.762Z,100.00
2022-10-04T01:08:04.410Z,100.00
2022-10-04T01:10:37.758Z,100.00
2022-10-04T01:13:11.879Z,100.00
2022-10-04T01:15:45.964Z,100.00
2022-10-04T01:18:17.011Z,100.00
2022-10-04T01:20:55.646Z,100.00
2022-10-04T01:23:37.936Z,100.00
2022-10-04T01:26:07.597Z,100.00
2022-10-04T01:28:36.714Z,100.00
2022-10-04T01:31:04.847Z,100.00
2022-10-04T01:33:32.744Z,100.00
2022-10-04T01:36:00.847Z,100.00
2022-10-04T01:38:28.806Z,100.00
2022-10-04T01:41:03.551Z,100.00
2022-10-04T01:43:37.627Z,100.00
2022-10-04T01:46:11.027Z,100.00
2022-10-04T01:48:43.173Z,100.00
2022-10-04T01:51:18.085Z,100.00
2022-10-04T01:53:49.692Z,100.00
2022-10-04T01:56:22.997Z,100.00
2022-10-04T01:58:55.005Z,100.00
2022-10-04T02:01:28.835Z,100.00
2022-10-04T02:04:00.815Z,100.00
2022-10-04T02:06:30.061Z,100.00
2022-10-04T02:08:59.238Z,100.00
2022-10-04T02:11:31.290Z,100.00
2022-10-04T02:14:00.418Z,100.00
2022-10-04T02:16:28.843Z,100.00
2022-10-04T02:18:57.503Z,100.00
2022-10-04T02:21:25.995Z,100.00
2022-10-04T02:23:55.877Z,100.00
2022-10-04T02:26:23.834Z,100.00
2022-10-04T02:28:53.148Z,100.00
2022-10-04T02:31:41.472Z,100.00
2022-10-04T02:34:10.210Z,100.00
2022-10-04T02:36:39.519Z,100.00
2022-10-04T02:39:15.498Z,100.00
2022-10-04T02:41:47.525Z,100.00
2022-10-04T02:44:21.870Z,100.00
2022-10-04T02:46:54.041Z,100.00
2022-10-04T02:49:29.875Z,100.00
2022-10-04T02:52:04.561Z,100.00
2022-10-04T02:54:38.031Z,100.00
2022-10-04T02:57:06.287Z,100.00
2022-10-04T02:59:35.786Z,100.00
2022-10-04T03:02:04.211Z,100.00
2022-10-04T03:04:36.235Z,100.00
2022-10-04T03:07:07.532Z,100.00
2022-10-04T03:09:37.806Z,100.00
2022-10-04T03:12:06.037Z,100.00
2022-10-04T03:14:35.664Z,100.00
2022-10-04T03:17:04.973Z,100.00
2022-10-04T03:19:34.930Z,100.00
2022-10-04T03:22:07.427Z,100.00
2022-10-04T03:24:40.802Z,100.00
2022-10-04T03:27:15.106Z,100.00
2022-10-04T03:29:44.939Z,100.00
2022-10-04T03:32:16.041Z,100.00
2022-10-04T03:34:51.704Z,100.00
2022-10-04T03:37:21.639Z,100.00
2022-10-04T03:39:52.612Z,100.00
2022-10-04T03:42:23.576Z,100.00
2022-10-04T03:44:56.297Z,100.00
2022-10-04T03:47:28.627Z,100.00
2022-10-04T03:49:59.994Z,100.00
2022-10-04T03:52:32.668Z,100.00
2022-10-04T03:55:04.018Z,100.00
2022-10-04T03:57:32.709Z,100.00
2022-10-04T04:00:02.938Z,100.00
2022-10-04T04:02:46.381Z,100.00
2022-10-04T04:05:20.828Z,100.00
2022-10-04T04:07:55.611Z,100.00
2022-10-04T04:10:28.249Z,100.00
2022-10-04T04:13:00.830Z,100.00
2022-10-04T04:15:33.719Z,100.00
2022-10-04T04:18:04.493Z,100.00
2022-10-04T04:20:35.195Z,100.00
2022-10-04T04:23:06.795Z,100.00
2022-10-04T04:25:38.616Z,100.00
2022-10-04T04:28:22.442Z,100.00
2022-10-04T04:30:55.873Z,100.00
2022-10-04T04:33:31.027Z,100.00
2022-10-04T04:36:06.427Z,100.00
2022-10-04T04:38:36.563Z,100.00
2022-10-04T04:41:10.984Z,100.00
2022-10-04T04:43:44.821Z,100.00
2022-10-04T04:46:29.480Z,100.00
2022-10-04T04:49:03.100Z,100.00
2022-10-04T04:51:32.948Z,100.00
2022-10-04T04:54:03.433Z,100.00
2022-10-04T04:56:32.100Z,100.00
2022-10-04T04:59:04.710Z,100.00
2022-10-04T05:01:36.882Z,100.00
2022-10-04T05:04:14.903Z,100.00
2022-10-04T05:06:44.452Z,100.00
2022-10-04T05:09:25.508Z,100.00
2022-10-04T05:11:57.209Z,100.00
2022-10-04T05:14:25.313Z,100.00
2022-10-04T05:16:56.192Z,100.00
2022-10-04T05:19:27.619Z,100.00
2022-10-04T05:21:57.556Z,100.00
2022-10-04T05:24:28.844Z,100.00
2022-10-04T05:27:00.179Z,100.00
2022-10-04T05:29:32.662Z,100.00
2022-10-04T05:32:22.915Z,100.00
2022-10-04T05:34:51.443Z,100.00
2022-10-04T05:37:46.752Z,100.00
2022-10-04T05:40:30.893Z,100.00
2022-10-04T05:42:59.446Z,100.00
2022-10-04T05:45:29.017Z,100.00
2022-10-04T05:48:00.860Z,100.00
2022-10-04T05:50:32.940Z,100.00
2022-10-04T05:53:24.653Z,100.00
2022-10-04T05:56:01.682Z,100.00
2022-10-04T05:58:42.408Z,100.00
2022-10-04T06:01:23.756Z,100.00
2022-10-04T06:04:17.644Z,100.00
2022-10-04T06:06:51.148Z,100.00
2022-10-04T06:09:36.375Z,100.00
2022-10-04T06:12:10.854Z,100.00
2022-10-04T06:15:08.276Z,100.00
2022-10-04T06:18:03.062Z,100.00
2022-10-04T06:21:07.967Z,100.00
2022-10-04T06:23:45.454Z,100.00
2022-10-04T06:26:19.349Z,100.00
2022-10-04T06:28:51.473Z,100.00
2022-10-04T06:31:59.518Z,100.00
2022-10-04T06:34:48.287Z,100.00
2022-10-04T06:37:32.872Z,100.00
2022-10-04T06:40:26.818Z,100.00
2022-10-04T06:43:11.755Z,100.00
2022-10-04T06:45:51.265Z,100.00
2022-10-04T06:48:51.529Z,100.00
2022-10-04T06:51:34.912Z,100.00
2022-10-04T06:54:21.273Z,100.00
2022-10-04T06:57:20.147Z,100.00
2022-10-04T07:00:04.537Z,100.00
2022-10-04T07:02:39.553Z,100.00
2022-10-04T07:05:18.635Z,100.00
2022-10-04T07:08:05.329Z,100.00
2022-10-04T07:10:41.252Z,100.00
2022-10-04T07:13:21.513Z,100.00
2022-10-04T07:15:56.492Z,100.00
2022-10-04T07:18:30.095Z,100.00
2022-10-04T07:21:06.904Z,100.00
2022-10-04T07:23:40.576Z,100.00
2022-10-04T07:26:23.848Z,100.00
2022-10-04T07:29:13.312Z,100.00
2022-10-04T07:31:42.894Z,100.00
2022-10-04T07:34:15.455Z,100.00
2022-10-04T07:36:47.636Z,100.00
2022-10-04T07:39:18.281Z,100.00
2022-10-04T07:41:52.536Z,100.00
2022-10-04T07:44:37.123Z,100.00
2022-10-04T07:47:14.668Z,100.00
2022-10-04T07:49:42.961Z,100.00
2022-10-04T07:52:24.718Z,100.00
2022-10-04T07:55:02.232Z,100.00
2022-10-04T07:57:39.972Z,100.00
2022-10-04T08:00:17.172Z,100.00
2022-10-04T08:02:57.420Z,100.00
2022-10-04T08:05:29.507Z,100.00
2022-10-04T08:08:16.097Z,100.00
2022-10-04T08:10:57.681Z,100.00
2022-10-04T08:13:34.607Z,100.00
2022-10-04T08:16:05.609Z,100.00
2022-10-04T08:18:47.958Z,100.00
2022-10-04T08:21:26.753Z,100.00
2022-10-04T08:24:13.652Z,100.00
2022-10-04T08:27:02.978Z,100.00
2022-10-04T08:29:47.306Z,100.00
2022-10-04T08:32:46.869Z,100.00
2022-10-04T08:35:34.217Z,100.00
2022-10-04T08:38:28.095Z,100.00
2022-10-04T08:41:33.659Z,100.00
2022-10-04T08:44:43.142Z,100.00
2022-10-04T08:47:40.980Z,100.00
2022-10-04T08:50:41.880Z,100.00
2022-10-04T08:53:48.858Z,100.00
2022-10-04T08:56:25.692Z,100.00
2022-10-04T08:59:32.298Z,100.00
2022-10-04T09:02:33.024Z,100.00
2022-10-04T09:05:26.426Z,100.00
2022-10-04T09:08:39.349Z,100.00
2022-10-04T09:11:28.054Z,100.00
2022-10-04T09:14:18.812Z,100.00
2022-10-04T09:16:48.511Z,100.00
2022-10-04T09:19:23.852Z,98.62
2022-10-04T09:22:11.519Z,100.00
2022-10-04T09:25:10.163Z,97.64
2022-10-04T09:27:58.692Z,98.15
2022-10-04T09:30:41.991Z,95.58
2022-10-04T09:33:41.148Z,96.65
2022-10-04T09:36:25.897Z,95.62
2022-10-04T09:39:30.379Z,92.26
2022-10-04T09:42:21.579Z,98.88
2022-10-04T09:45:30.887Z,96.43
2022-10-04T09:48:25.058Z,94.92
2022-10-04T09:51:25.426Z,92.25
2022-10-04T09:54:05.554Z,94.67
2022-10-04T09:56:59.225Z,91.08
2022-10-04T09:59:40.968Z,91.90
2022-10-04T10:02:40.454Z,90.73
2022-10-04T10:05:36.311Z,91.60
2022-10-04T10:08:17.872Z,90.60
2022-10-04T10:11:15.231Z,88.96
2022-10-04T10:14:11.629Z,89.14
2022-10-04T10:16:54.298Z,90.31
2022-10-04T10:20:27.129Z,88.67
2022-10-04T10:23:18.336Z,88.64
2022-10-04T10:26:01.481Z,87.80
2022-10-04T10:28:52.847Z,83.17
2022-10-04T10:31:37.070Z,83.77
2022-10-04T10:34:42.483Z,84.65
2022-10-04T10:37:13.386Z,85.39
2022-10-04T10:40:00.938Z,87.14
2022-10-04T10:42:52.073Z,85.13
2022-10-04T10:45:45.632Z,84.92
2022-10-04T10:48:18.909Z,82.82
2022-10-04T10:51:03.374Z,84.16
2022-10-04T10:54:05.190Z,82.37
2022-10-04T10:56:39.741Z,81.25
2022-10-04T10:59:43.258Z,79.22
2022-10-04T11:03:07.152Z,78.53
2022-10-04T11:06:14.972Z,81.42
2022-10-04T11:09:19.393Z,81.44
2022-10-04T11:12:28.171Z,84.16
2022-10-04T11:15:38.454Z,83.32
2022-10-04T11:18:21.214Z,81.45
2022-10-04T11:21:25.759Z,85.75
2022-10-04T11:24:21.549Z,85.39
2022-10-04T11:27:02.771Z,82.61
2022-10-04T11:30:00.160Z,82.87
2022-10-04T11:33:06.454Z,83.30
2022-10-04T11:35:55.526Z,83.86
2022-10-04T11:38:48.756Z,83.97
2022-10-04T11:41:25.946Z,84.53
2022-10-04T11:44:19.283Z,82.07
2022-10-04T11:46:55.188Z,80.83
2022-10-04T11:49:42.820Z,79.89
2022-10-04T11:52:31.612Z,80.76
2022-10-04T11:55:32.188Z,83.83
2022-10-04T11:58:11.748Z,82.40
2022-10-04T12:00:55.980Z,86.05
2022-10-04T12:03:54.306Z,81.77
2022-10-04T12:06:39.121Z,83.03
2022-10-04T12:09:20.729Z,83.82
2022-10-04T12:12:25.490Z,82.08
2022-10-04T12:15:22.167Z,85.61
2022-10-04T12:18:26.642Z,83.37
2022-10-04T12:21:10.676Z,83.77
2022-10-04T12:24:09.143Z,80.72
2022-10-04T12:27:10.470Z,82.64
2022-10-04T12:30:23.871Z,80.77
2022-10-04T12:33:02.530Z,80.54
2022-10-04T12:35:39.064Z,78.93
2022-10-04T12:38:26.837Z,78.24
2022-10-04T12:41:04.774Z,79.50
2022-10-04T12:43:42.164Z,76.61
2022-10-04T12:46:22.656Z,76.47
2022-10-04T12:49:11.950Z,76.39
2022-10-04T12:51:53.992Z,78.63
2022-10-04T12:54:35.698Z,78.26
2022-10-04T12:57:45.671Z,79.63
2022-10-04T13:00:22.769Z,77.42
2022-10-04T13:03:12.174Z,77.69
2022-10-04T13:05:48.802Z,77.92
2022-10-04T13:08:32.677Z,77.20
2022-10-04T13:11:26.020Z,78.65
2022-10-04T13:14:23.986Z,77.86
2022-10-04T13:20:01.264Z,77.44
2022-10-04T13:22:57.311Z,76.71
2022-10-04T13:25:45.984Z,74.86
2022-10-04T13:28:24.599Z,78.70
2022-10-04T13:31:01.051Z,77.06
2022-10-04T13:33:40.308Z,79.06
2022-10-04T13:36:13.506Z,78.00
2022-10-04T13:39:09.531Z,79.69
2022-10-04T13:41:54.072Z,79.87
2022-10-04T13:44:49.117Z,77.32
2022-10-04T13:47:32.939Z,79.34
2022-10-04T13:50:23.036Z,79.19
2022-10-04T13:53:17.820Z,77.77
2022-10-04T13:56:11.588Z,77.63
2022-10-04T13:58:48.225Z,77.70
2022-10-04T14:01:46.312Z,79.54
2022-10-04T14:04:32.783Z,78.56
2022-10-04T14:07:21.199Z,79.69
2022-10-04T14:10:10.075Z,78.54
2022-10-04T14:13:10.400Z,79.94
2022-10-04T14:15:53.525Z,79.26
2022-10-04T14:18:54.036Z,78.13
2022-10-04T14:21:45.732Z,78.53
2022-10-04T14:24:51.613Z,78.24
2022-10-04T14:27:58.112Z,78.12
2022-10-04T14:30:39.361Z,78.32
2022-10-04T14:33:35.440Z,78.36
2022-10-04T14:36:40.977Z,78.94
2022-10-04T14:39:34.863Z,79.08
2022-10-04T14:42:25.243Z,78.00
2022-10-04T14:45:12.908Z,78.01
2022-10-04T14:48:17.926Z,77.72
2022-10-04T14:50:58.203Z,79.01
2022-10-04T14:53:30.558Z,77.02
2022-10-04T14:56:20.872Z,77.07
2022-10-04T14:58:55.133Z,78.44
2022-10-04T15:01:24.700Z,77.62
2022-10-04T15:04:15.136Z,77.97
2022-10-04T15:06:49.614Z,76.23
2022-10-04T15:09:34.534Z,79.08
2022-10-04T15:12:40.597Z,79.06
2022-10-04T15:15:56.046Z,78.00
2022-10-04T15:18:47.861Z,78.68
2022-10-04T15:21:44.956Z,79.92
2022-10-04T15:24:24.287Z,80.37
2022-10-04T15:27:12.419Z,79.68
2022-10-04T15:29:48.551Z,79.86
2022-10-04T15:32:33.179Z,80.19
2022-10-04T15:35:18.905Z,79.01
2022-10-04T15:37:54.083Z,79.02
2022-10-04T15:40:34.252Z,79.05
2022-10-04T15:43:25.253Z,80.45
2022-10-04T15:46:26.942Z,80.13
2022-10-04T15:49:21.781Z,80.84
2022-10-04T15:52:10.041Z,82.10
2022-10-04T15:54:59.585Z,81.57
2022-10-04T15:57:33.512Z,82.39
2022-10-04T16:00:08.798Z,82.78
2022-10-04T16:03:07.558Z,84.19
2022-10-04T16:05:40.097Z,83.20
2022-10-04T16:08:33.928Z,85.72
2022-10-04T16:11:18.015Z,86.73
2022-10-04T16:13:58.355Z,88.34
2022-10-04T16:16:50.082Z,88.62
2022-10-04T16:19:33.331Z,89.17
2022-10-04T16:22:16.182Z,88.41
2022-10-04T16:24:48.934Z,89.41
2022-10-04T16:27:57.904Z,88.36
2022-10-04T16:30:29.245Z,87.99
2022-10-04T16:33:12.915Z,90.76
2022-10-04T16:35:44.663Z,91.47
2022-10-04T16:38:25.308Z,92.88
2022-10-04T16:41:08.096Z,94.08
2022-10-04T16:43:41.054Z,92.64
2022-10-04T16:46:20.030Z,94.25
2022-10-04T16:48:53.672Z,94.56
2022-10-04T16:51:49.049Z,95.21
2022-10-04T16:54:49.843Z,99.20
2022-10-04T16:57:23.453Z,100.00
2022-10-04T16:59:54.962Z,100.00
2022-10-04T17:02:46.988Z,100.00
2022-10-04T17:05:39.636Z,100.00
2022-10-04T17:08:53.867Z,100.00
2022-10-04T17:11:48.976Z,100.00
2022-10-04T17:14:43.791Z,100.00
2022-10-04T17:17:23.699Z,100.00
2022-10-04T17:19:56.896Z,100.00
2022-10-04T17:22:33.950Z,100.00
2022-10-04T17:25:14.467Z,100.00
2022-10-04T17:27:51.800Z,100.00
2022-10-04T17:30:22.678Z,100.00
2022-10-04T17:33:11.934Z,100.00
2022-10-04T17:36:18.596Z,100.00
2022-10-04T17:38:58.495Z,100.00
2022-10-04T17:41:43.416Z,100.00
2022-10-04T17:44:30.590Z,100.00
2022-10-04T17:47:05.115Z,100.00
2022-10-04T17:50:04.876Z,100.00
2022-10-04T17:53:00.132Z,100.00
2022-10-04T17:55:35.701Z,100.00
2022-10-04T17:58:12.750Z,100.00
2022-10-04T18:00:54.156Z,100.00
2022-10-04T18:03:26.273Z,100.00
2022-10-04T18:05:59.206Z,100.00
2022-10-04T18:08:41.910Z,100.00
2022-10-04T18:11:20.427Z,100.00
2022-10-04T18:13:57.039Z,100.00
2022-10-04T18:16:30.570Z,100.00
2022-10-04T18:19:03.117Z,100.00
2022-10-04T18:21:32.405Z,100.00
2022-10-04T18:24:17.389Z,100.00
2022-10-04T18:26:56.855Z,100.00
2022-10-04T18:29:38.000Z,100.00
2022-10-04T18:32:32.555Z,100.00
2022-10-04T18:35:02.574Z,100.00
2022-10-04T18:37:34.251Z,100.00
2022-10-04T18:40:15.693Z,100.00
2022-10-04T18:42:52.301Z,100.00
2022-10-04T18:45:23.637Z,100.00
2022-10-04T18:47:54.019Z,100.00
2022-10-04T18:50:25.843Z,100.00
2022-10-04T18:53:13.702Z,100.00
2022-10-04T18:55:48.803Z,100.00
2022-10-04T18:58:46.486Z,100.00
2022-10-04T19:02:07.849Z,100.00
2022-10-04T19:04:50.384Z,100.00
2022-10-04T19:07:24.288Z,100.00
2022-10-04T19:10:12.654Z,100.00
2022-10-04T19:12:49.474Z,100.00
2022-10-04T19:15:36.915Z,100.00
2022-10-04T19:18:23.079Z,100.00
2022-10-04T19:21:00.472Z,100.00
2022-10-04T19:23:37.545Z,100.00
2022-10-04T19:29:11.680Z,100.00
2022-10-04T19:31:48.742Z,100.00
2022-10-04T19:34:23.024Z,100.00
2022-10-04T19:37:00.502Z,100.00
2022-10-04T19:39:41.140Z,100.00
2022-10-04T19:42:13.819Z,100.00
2022-10-04T19:44:58.764Z,100.00
2022-10-04T19:47:40.073Z,100.00
2022-10-04T19:50:18.369Z,100.00
2022-10-04T19:52:54.466Z,100.00
2022-10-04T19:55:27.510Z,100.00
2022-10-04T19:58:09.399Z,100.00
2022-10-04T20:00:37.638Z,100.00
2022-10-04T20:03:12.287Z,100.00
2022-10-04T20:05:45.156Z,100.00
2022-10-04T20:08:16.475Z,100.00
2022-10-04T20:10:44.959Z,100.00
2022-10-04T20:13:25.331Z,100.00
2022-10-04T20:15:55.808Z,100.00
2022-10-04T20:18:47.634Z,100.00
2022-10-04T20:21:26.744Z,100.00
2022-10-04T20:23:57.147Z,100.00
2022-10-04T20:27:06.105Z,100.00
2022-10-04T20:30:04.371Z,100.00
2022-10-04T20:32:55.279Z,100.00
2022-10-04T20:36:09.587Z,100.00
2022-10-04T20:38:51.922Z,100.00
2022-10-04T20:42:24.876Z,100.00
2022-10-04T20:44:58.333Z,100.00
2022-10-04T20:47:43.861Z,100.00
2022-10-04T20:50:18.728Z,100.00
2022-10-04T20:52:49.111Z,100.00
2022-10-04T20:55:22.472Z,100.00
2022-10-04T20:57:51.890Z,100.00
2022-10-04T21:00:21.952Z,100.00
2022-10-04T21:02:49.988Z,100.00
2022-10-04T21:05:25.660Z,100.00
2022-10-04T21:08:15.101Z,100.00
2022-10-04T21:11:08.398Z,100.00
2022-10-04T21:13:54.747Z,100.00
2022-10-04T21:16:45.205Z,100.00
2022-10-04T21:19:46.562Z,100.00
2022-10-04T21:22:52.357Z,100.00
2022-10-04T21:25:31.015Z,100.00
2022-10-04T21:28:24.311Z,100.00
2022-10-04T21:30:53.652Z,100.00
2022-10-04T21:33:21.557Z,100.00
2022-10-04T21:35:51.495Z,100.00
2022-10-04T21:38:19.959Z,100.00
2022-10-04T21:40:47.777Z,100.00
2022-10-04T21:43:15.582Z,100.00
2022-10-04T21:45:43.654Z,100.00
2022-10-04T21:48:12.965Z,100.00
2022-10-04T21:50:41.038Z,100.00
2022-10-04T21:53:08.908Z,100.00
2022-10-04T21:55:36.684Z,100.00
2022-10-04T21:58:04.580Z,100.00
2022-10-04T22:00:32.564Z,100.00
2022-10-04T22:03:00.622Z,100.00
2022-10-04T22:05:30.390Z,100.00
2022-10-04T22:07:59.594Z,100.00
2022-10-04T22:10:27.882Z,100.00
2022-10-04T22:12:57.232Z,100.00
2022-10-04T22:15:29.251Z,100.00
2022-10-04T22:17:57.171Z,100.00
2022-10-04T22:20:26.111Z,100.00
2022-10-04T22:22:57.589Z,100.00
2022-10-04T22:25:27.963Z,100.00
2022-10-04T22:27:55.809Z,100.00
2022-10-04T22:30:26.543Z,100.00
2022-10-04T22:32:56.555Z,100.00
2022-10-04T22:35:24.890Z,100.00
2022-10-04T22:37:53.071Z,100.00
2022-10-04T22:40:24.290Z,100.00
2022-10-04T22:42:53.893Z,100.00
2022-10-04T22:45:25.205Z,100.00
2022-10-04T22:47:54.386Z,100.00
2022-10-04T22:50:31.404Z,100.00
2022-10-04T22:53:03.980Z,100.00
2022-10-04T22:55:33.352Z,100.00
2022-10-04T22:58:03.021Z,100.00
2022-10-04T23:00:30.879Z,100.00
2022-10-04T23:02:58.839Z,100.00
2022-10-04T23:05:26.793Z,100.00
2022-10-04T23:07:54.628Z,100.00
2022-10-04T23:10:22.481Z,100.00
2022-10-04T23:12:51.645Z,100.00
2022-10-04T23:15:21.759Z,100.00
2022-10-04T23:17:55.198Z,100.00
2022-10-04T23:20:23.757Z,100.00
2022-10-04T23:22:53.480Z,100.00
2022-10-04T23:25:24.519Z,100.00
2022-10-04T23:27:53.837Z,100.00
2022-10-04T23:30:23.174Z,100.00
2022-10-04T23:32:54.368Z,100.00
2022-10-04T23:35:25.260Z,100.00
2022-10-04T23:37:54.533Z,100.00
2022-10-04T23:40:24.634Z,100.00
2022-10-04T23:42:57.469Z,100.00
2022-10-04T23:45:26.772Z,100.00
2022-10-04T23:47:56.989Z,100.00
2022-10-04T23:50:28.134Z,100.00
2022-10-04T23:53:04.388Z,100.00
2022-10-04T23:55:35.840Z,100.00
2022-10-04T23:58:14.206Z,100.00
